sensor_id;sensor_type;location;lat;lon;timestamp;P1;P2;P0
77411;PMS7003;66484;49.968;19.140;2023-07-13T00:01:48;8.00;8.00;7.25
77411;PMS7003;66484;49.968;19.140;2023-07-13T00:04:17;10.00;8.75;7.00
77411;PMS7003;66484;49.968;19.140;2023-07-13T00:06:44;7.25;6.00;5.00
77411;PMS7003;66484;49.968;19.140;2023-07-13T00:09:13;6.50;6.25;6.00
77411;PMS7003;66484;49.968;19.140;2023-07-13T00:11:40;3.50;3.50;3.00
77411;PMS7003;66484;49.968;19.140;2023-07-13T00:14:08;9.00;7.75;7.00
77411;PMS7003;66484;49.968;19.140;2023-07-13T00:16:37;10.50;9.25;7.00
77411;PMS7003;66484;49.968;19.140;2023-07-13T00:19:05;3.75;3.25;3.25
77411;PMS7003;66484;49.968;19.140;2023-07-13T00:21:33;5.50;4.00;3.25
77411;PMS7003;66484;49.968;19.140;2023-07-13T00:24:00;8.50;6.00;5.25
77411;PMS7003;66484;49.968;19.140;2023-07-13T00:26:28;8.00;7.00;5.75
77411;PMS7003;66484;49.968;19.140;2023-07-13T00:28:55;6.00;6.00;4.75
77411;PMS7003;66484;49.968;19.140;2023-07-13T00:31:23;5.25;5.25;4.25
77411;PMS7003;66484;49.968;19.140;2023-07-13T00:33:51;5.75;5.75;5.25
77411;PMS7003;66484;49.968;19.140;2023-07-13T00:36:19;7.75;6.00;6.00
77411;PMS7003;66484;49.968;19.140;2023-07-13T00:38:47;7.75;7.50;6.00
77411;PMS7003;66484;49.968;19.140;2023-07-13T00:41:15;6.25;6.25;4.00
77411;PMS7003;66484;49.968;19.140;2023-07-13T00:43:42;7.25;7.25;5.25
77411;PMS7003;66484;49.968;19.140;2023-07-13T00:48:40;3.00;3.00;2.00
77411;PMS7003;66484;49.968;19.140;2023-07-13T00:51:07;9.00;9.00;6.75
77411;PMS7003;66484;49.968;19.140;2023-07-13T00:53:36;9.50;7.50;6.50
77411;PMS7003;66484;49.968;19.140;2023-07-13T00:56:03;9.25;6.25;5.25
77411;PMS7003;66484;49.968;19.140;2023-07-13T00:58:31;6.00;6.00;4.50
77411;PMS7003;66484;49.968;19.140;2023-07-13T01:00:58;7.50;6.50;5.50
77411;PMS7003;66484;49.968;19.140;2023-07-13T01:03:26;8.75;7.75;6.00
77411;PMS7003;66484;49.968;19.140;2023-07-13T01:05:53;7.50;7.50;6.00
77411;PMS7003;66484;49.968;19.140;2023-07-13T01:08:21;8.00;8.00;6.25
77411;PMS7003;66484;49.968;19.140;2023-07-13T01:10:55;8.50;7.50;6.25
77411;PMS7003;66484;49.968;19.140;2023-07-13T01:13:24;8.00;6.00;5.75
77411;PMS7003;66484;49.968;19.140;2023-07-13T01:15:51;7.50;7.00;6.50
77411;PMS7003;66484;49.968;19.140;2023-07-13T01:18:21;9.00;9.00;7.50
77411;PMS7003;66484;49.968;19.140;2023-07-13T01:20:59;10.25;8.75;6.75
77411;PMS7003;66484;49.968;19.140;2023-07-13T01:23:27;7.00;7.00;6.25
77411;PMS7003;66484;49.968;19.140;2023-07-13T01:25:55;7.50;7.50;6.50
77411;PMS7003;66484;49.968;19.140;2023-07-13T01:28:23;9.50;9.00;7.00
77411;PMS7003;66484;49.968;19.140;2023-07-13T01:30:54;7.00;7.00;5.75
77411;PMS7003;66484;49.968;19.140;2023-07-13T01:33:23;6.25;6.25;6.00
77411;PMS7003;66484;49.968;19.140;2023-07-13T01:35:50;10.00;8.00;7.00
77411;PMS7003;66484;49.968;19.140;2023-07-13T01:38:18;8.75;8.50;7.25
77411;PMS7003;66484;49.968;19.140;2023-07-13T01:40:46;7.75;7.75;6.75
77411;PMS7003;66484;49.968;19.140;2023-07-13T01:43:13;9.25;9.00;6.00
77411;PMS7003;66484;49.968;19.140;2023-07-13T01:45:41;6.25;6.25;4.00
77411;PMS7003;66484;49.968;19.140;2023-07-13T01:48:12;4.75;4.75;4.50
77411;PMS7003;66484;49.968;19.140;2023-07-13T01:50:40;10.50;9.75;8.75
77411;PMS7003;66484;49.968;19.140;2023-07-13T01:53:07;9.00;8.00;7.75
77411;PMS7003;66484;49.968;19.140;2023-07-13T01:55:35;10.00;8.50;7.00
77411;PMS7003;66484;49.968;19.140;2023-07-13T01:58:03;8.00;6.75;5.50
77411;PMS7003;66484;49.968;19.140;2023-07-13T02:00:30;10.50;7.75;4.00
77411;PMS7003;66484;49.968;19.140;2023-07-13T02:02:58;7.50;7.50;6.25
77411;PMS7003;66484;49.968;19.140;2023-07-13T02:05:26;9.25;8.00;8.00
77411;PMS7003;66484;49.968;19.140;2023-07-13T02:07:53;6.75;6.75;6.25
77411;PMS7003;66484;49.968;19.140;2023-07-13T02:10:20;6.25;6.25;6.00
77411;PMS7003;66484;49.968;19.140;2023-07-13T02:12:48;9.50;9.00;7.00
77411;PMS7003;66484;49.968;19.140;2023-07-13T02:15:16;8.00;8.00;6.25
77411;PMS7003;66484;49.968;19.140;2023-07-13T02:17:43;8.00;8.00;5.50
77411;PMS7003;66484;49.968;19.140;2023-07-13T02:20:11;8.75;8.50;7.00
77411;PMS7003;66484;49.968;19.140;2023-07-13T02:22:39;12.25;10.75;8.00
77411;PMS7003;66484;49.968;19.140;2023-07-13T02:25:06;8.00;8.00;7.00
77411;PMS7003;66484;49.968;19.140;2023-07-13T02:27:34;10.50;9.25;7.00
77411;PMS7003;66484;49.968;19.140;2023-07-13T02:30:01;7.00;7.00;5.00
77411;PMS7003;66484;49.968;19.140;2023-07-13T02:32:30;9.25;8.25;6.00
77411;PMS7003;66484;49.968;19.140;2023-07-13T02:34:57;11.00;8.00;7.00
77411;PMS7003;66484;49.968;19.140;2023-07-13T02:37:25;10.50;7.00;6.25
77411;PMS7003;66484;49.968;19.140;2023-07-13T02:39:52;7.25;7.25;6.25
77411;PMS7003;66484;49.968;19.140;2023-07-13T02:42:21;6.50;6.50;5.75
77411;PMS7003;66484;49.968;19.140;2023-07-13T02:44:48;8.25;7.25;6.25
77411;PMS7003;66484;49.968;19.140;2023-07-13T02:47:17;12.25;9.75;7.25
77411;PMS7003;66484;49.968;19.140;2023-07-13T02:49:44;9.25;9.25;8.00
77411;PMS7003;66484;49.968;19.140;2023-07-13T02:52:12;15.00;11.25;9.25
77411;PMS7003;66484;49.968;19.140;2023-07-13T02:54:40;6.25;6.25;3.00
77411;PMS7003;66484;49.968;19.140;2023-07-13T02:57:08;14.25;12.00;8.00
77411;PMS7003;66484;49.968;19.140;2023-07-13T02:59:34;11.00;11.00;7.75
77411;PMS7003;66484;49.968;19.140;2023-07-13T03:02:03;9.00;8.75;6.75
77411;PMS7003;66484;49.968;19.140;2023-07-13T03:04:30;11.75;10.75;7.75
77411;PMS7003;66484;49.968;19.140;2023-07-13T03:06:57;9.25;9.25;7.50
77411;PMS7003;66484;49.968;19.140;2023-07-13T03:09:25;10.25;9.25;7.25
77411;PMS7003;66484;49.968;19.140;2023-07-13T03:11:53;8.75;8.75;7.75
77411;PMS7003;66484;49.968;19.140;2023-07-13T03:14:22;14.50;13.00;11.00
77411;PMS7003;66484;49.968;19.140;2023-07-13T03:16:50;9.50;9.50;7.00
77411;PMS7003;66484;49.968;19.140;2023-07-13T03:19:17;12.00;9.75;8.00
77411;PMS7003;66484;49.968;19.140;2023-07-13T03:21:45;10.75;10.00;9.00
77411;PMS7003;66484;49.968;19.140;2023-07-13T03:24:12;4.25;4.25;3.00
77411;PMS7003;66484;49.968;19.140;2023-07-13T03:26:40;10.75;9.75;7.50
77411;PMS7003;66484;49.968;19.140;2023-07-13T03:29:07;10.00;10.00;8.25
77411;PMS7003;66484;49.968;19.140;2023-07-13T03:31:36;13.00;10.50;7.00
77411;PMS7003;66484;49.968;19.140;2023-07-13T03:34:03;7.00;7.00;6.50
77411;PMS7003;66484;49.968;19.140;2023-07-13T03:36:31;10.50;9.25;7.75
77411;PMS7003;66484;49.968;19.140;2023-07-13T03:39:00;9.75;9.75;7.25
77411;PMS7003;66484;49.968;19.140;2023-07-13T03:41:28;8.00;8.00;7.00
77411;PMS7003;66484;49.968;19.140;2023-07-13T03:43:55;8.25;8.25;7.00
77411;PMS7003;66484;49.968;19.140;2023-07-13T03:46:23;9.75;9.75;7.75
77411;PMS7003;66484;49.968;19.140;2023-07-13T03:48:50;7.00;7.00;5.00
77411;PMS7003;66484;49.968;19.140;2023-07-13T03:51:18;8.25;7.50;6.00
77411;PMS7003;66484;49.968;19.140;2023-07-13T03:53:46;11.00;8.00;6.00
77411;PMS7003;66484;49.968;19.140;2023-07-13T03:56:14;8.50;8.50;6.75
77411;PMS7003;66484;49.968;19.140;2023-07-13T03:58:42;6.50;5.00;5.00
77411;PMS7003;66484;49.968;19.140;2023-07-13T04:01:11;10.75;9.75;7.50
77411;PMS7003;66484;49.968;19.140;2023-07-13T04:03:38;5.25;5.25;4.00
77411;PMS7003;66484;49.968;19.140;2023-07-13T04:06:07;9.25;8.75;8.00
77411;PMS7003;66484;49.968;19.140;2023-07-13T04:08:35;7.75;7.25;5.25
77411;PMS7003;66484;49.968;19.140;2023-07-13T04:11:04;9.50;6.00;5.25
77411;PMS7003;66484;49.968;19.140;2023-07-13T04:13:31;10.00;6.75;6.00
77411;PMS7003;66484;49.968;19.140;2023-07-13T04:15:59;7.50;7.50;6.25
77411;PMS7003;66484;49.968;19.140;2023-07-13T04:18:26;8.25;8.25;5.75
77411;PMS7003;66484;49.968;19.140;2023-07-13T04:20:53;12.00;11.25;8.75
77411;PMS7003;66484;49.968;19.140;2023-07-13T04:23:22;8.00;6.50;4.75
77411;PMS7003;66484;49.968;19.140;2023-07-13T04:25:51;4.00;2.00;0.00
77411;PMS7003;66484;49.968;19.140;2023-07-13T04:28:24;9.00;9.00;7.75
77411;PMS7003;66484;49.968;19.140;2023-07-13T04:30:52;10.50;8.00;5.75
77411;PMS7003;66484;49.968;19.140;2023-07-13T04:33:20;10.50;9.25;7.00
77411;PMS7003;66484;49.968;19.140;2023-07-13T04:35:51;9.25;9.25;9.25
77411;PMS7003;66484;49.968;19.140;2023-07-13T04:38:26;7.75;7.75;6.25
77411;PMS7003;66484;49.968;19.140;2023-07-13T04:40:59;15.00;14.00;10.75
77411;PMS7003;66484;49.968;19.140;2023-07-13T04:43:27;12.00;12.00;9.50
77411;PMS7003;66484;49.968;19.140;2023-07-13T04:45:55;12.50;10.75;8.25
77411;PMS7003;66484;49.968;19.140;2023-07-13T04:48:23;17.00;16.50;12.00
77411;PMS7003;66484;49.968;19.140;2023-07-13T04:50:55;14.00;14.00;11.00
77411;PMS7003;66484;49.968;19.140;2023-07-13T04:53:22;16.00;15.00;10.25
77411;PMS7003;66484;49.968;19.140;2023-07-13T04:55:52;14.25;12.00;9.25
77411;PMS7003;66484;49.968;19.140;2023-07-13T04:58:19;13.75;11.75;9.75
77411;PMS7003;66484;49.968;19.140;2023-07-13T05:00:48;9.00;9.00;7.50
77411;PMS7003;66484;49.968;19.140;2023-07-13T05:03:16;11.25;7.50;6.50
77411;PMS7003;66484;49.968;19.140;2023-07-13T05:05:53;11.25;11.25;9.00
77411;PMS7003;66484;49.968;19.140;2023-07-13T05:08:21;12.75;10.25;7.75
77411;PMS7003;66484;49.968;19.140;2023-07-13T05:10:50;14.50;12.50;10.50
77411;PMS7003;66484;49.968;19.140;2023-07-13T05:13:17;9.00;9.00;6.50
77411;PMS7003;66484;49.968;19.140;2023-07-13T05:15:45;11.75;10.00;7.50
77411;PMS7003;66484;49.968;19.140;2023-07-13T05:18:12;12.75;12.75;10.25
77411;PMS7003;66484;49.968;19.140;2023-07-13T05:20:40;9.50;9.50;7.50
77411;PMS7003;66484;49.968;19.140;2023-07-13T05:23:07;14.00;12.25;9.75
77411;PMS7003;66484;49.968;19.140;2023-07-13T05:25:35;8.75;8.75;7.25
77411;PMS7003;66484;49.968;19.140;2023-07-13T05:28:02;9.00;9.00;7.25
77411;PMS7003;66484;49.968;19.140;2023-07-13T05:30:30;10.75;9.50;8.25
77411;PMS7003;66484;49.968;19.140;2023-07-13T05:32:58;8.50;7.50;5.75
77411;PMS7003;66484;49.968;19.140;2023-07-13T05:35:26;10.50;9.75;7.50
77411;PMS7003;66484;49.968;19.140;2023-07-13T05:37:54;15.50;14.25;10.25
77411;PMS7003;66484;49.968;19.140;2023-07-13T05:40:22;14.75;11.75;8.75
77411;PMS7003;66484;49.968;19.140;2023-07-13T05:42:49;12.50;11.75;10.00
77411;PMS7003;66484;49.968;19.140;2023-07-13T05:45:18;14.25;12.50;10.75
77411;PMS7003;66484;49.968;19.140;2023-07-13T05:47:46;14.75;13.50;11.25
77411;PMS7003;66484;49.968;19.140;2023-07-13T05:50:13;11.00;10.00;9.00
77411;PMS7003;66484;49.968;19.140;2023-07-13T05:52:41;13.50;13.00;12.00
77411;PMS7003;66484;49.968;19.140;2023-07-13T05:55:09;15.50;13.75;9.75
77411;PMS7003;66484;49.968;19.140;2023-07-13T05:57:36;13.25;13.00;11.00
77411;PMS7003;66484;49.968;19.140;2023-07-13T06:00:04;14.50;13.00;10.75
77411;PMS7003;66484;49.968;19.140;2023-07-13T06:02:31;13.00;12.50;10.75
77411;PMS7003;66484;49.968;19.140;2023-07-13T06:04:59;10.75;10.75;8.50
77411;PMS7003;66484;49.968;19.140;2023-07-13T06:07:27;10.00;9.50;8.50
77411;PMS7003;66484;49.968;19.140;2023-07-13T06:09:54;12.50;11.50;9.50
77411;PMS7003;66484;49.968;19.140;2023-07-13T06:12:21;11.25;11.25;8.50
77411;PMS7003;66484;49.968;19.140;2023-07-13T06:14:49;14.75;12.00;9.75
77411;PMS7003;66484;49.968;19.140;2023-07-13T06:17:17;8.75;7.25;6.75
77411;PMS7003;66484;49.968;19.140;2023-07-13T06:19:45;9.50;9.25;8.50
77411;PMS7003;66484;49.968;19.140;2023-07-13T06:22:13;11.00;11.00;9.50
77411;PMS7003;66484;49.968;19.140;2023-07-13T06:24:40;12.75;10.75;10.00
77411;PMS7003;66484;49.968;19.140;2023-07-13T06:27:08;10.25;10.00;8.25
77411;PMS7003;66484;49.968;19.140;2023-07-13T06:29:35;12.50;11.75;8.75
77411;PMS7003;66484;49.968;19.140;2023-07-13T06:32:03;11.50;11.50;10.00
77411;PMS7003;66484;49.968;19.140;2023-07-13T06:34:30;11.00;10.00;9.00
77411;PMS7003;66484;49.968;19.140;2023-07-13T06:36:58;13.75;11.75;9.00
77411;PMS7003;66484;49.968;19.140;2023-07-13T06:39:26;10.75;10.25;8.25
77411;PMS7003;66484;49.968;19.140;2023-07-13T06:41:54;13.25;12.25;9.75
77411;PMS7003;66484;49.968;19.140;2023-07-13T06:44:22;16.50;15.50;12.25
77411;PMS7003;66484;49.968;19.140;2023-07-13T06:46:49;11.50;10.00;9.00
77411;PMS7003;66484;49.968;19.140;2023-07-13T06:49:17;14.75;11.25;7.50
77411;PMS7003;66484;49.968;19.140;2023-07-13T06:51:45;13.50;13.50;10.25
77411;PMS7003;66484;49.968;19.140;2023-07-13T06:54:13;9.75;8.75;5.00
77411;PMS7003;66484;49.968;19.140;2023-07-13T06:56:41;10.75;10.75;9.00
77411;PMS7003;66484;49.968;19.140;2023-07-13T06:59:09;11.25;11.25;9.00
77411;PMS7003;66484;49.968;19.140;2023-07-13T07:01:37;10.25;9.00;7.25
77411;PMS7003;66484;49.968;19.140;2023-07-13T07:04:07;10.25;10.25;9.75
77411;PMS7003;66484;49.968;19.140;2023-07-13T07:06:35;9.50;9.50;8.00
77411;PMS7003;66484;49.968;19.140;2023-07-13T07:09:03;12.50;12.50;10.50
77411;PMS7003;66484;49.968;19.140;2023-07-13T07:11:31;10.25;10.25;8.75
77411;PMS7003;66484;49.968;19.140;2023-07-13T07:13:58;11.75;10.25;8.25
77411;PMS7003;66484;49.968;19.140;2023-07-13T07:16:26;11.00;7.25;6.25
77411;PMS7003;66484;49.968;19.140;2023-07-13T07:18:53;12.00;9.50;8.00
77411;PMS7003;66484;49.968;19.140;2023-07-13T07:21:21;7.00;6.50;6.00
77411;PMS7003;66484;49.968;19.140;2023-07-13T07:23:53;7.50;7.50;6.50
77411;PMS7003;66484;49.968;19.140;2023-07-13T07:26:20;9.00;9.00;7.25
77411;PMS7003;66484;49.968;19.140;2023-07-13T07:28:54;10.25;10.25;8.25
77411;PMS7003;66484;49.968;19.140;2023-07-13T07:31:42;6.25;6.25;5.50
77411;PMS7003;66484;49.968;19.140;2023-07-13T07:34:12;8.50;8.00;7.00
77411;PMS7003;66484;49.968;19.140;2023-07-13T07:36:40;9.00;8.00;5.50
77411;PMS7003;66484;49.968;19.140;2023-07-13T07:39:13;10.25;9.00;7.00
77411;PMS7003;66484;49.968;19.140;2023-07-13T07:41:41;9.75;9.50;8.50
77411;PMS7003;66484;49.968;19.140;2023-07-13T07:44:23;9.75;9.75;8.25
77411;PMS7003;66484;49.968;19.140;2023-07-13T07:46:50;14.25;10.50;7.25
77411;PMS7003;66484;49.968;19.140;2023-07-13T07:49:18;10.00;9.00;7.25
77411;PMS7003;66484;49.968;19.140;2023-07-13T07:51:45;9.75;9.75;8.75
77411;PMS7003;66484;49.968;19.140;2023-07-13T07:54:14;14.00;11.25;10.00
77411;PMS7003;66484;49.968;19.140;2023-07-13T07:56:55;11.25;11.25;10.00
77411;PMS7003;66484;49.968;19.140;2023-07-13T07:59:26;10.00;10.00;8.25
77411;PMS7003;66484;49.968;19.140;2023-07-13T08:01:56;9.25;9.25;8.00
77411;PMS7003;66484;49.968;19.140;2023-07-13T08:04:27;11.75;11.75;9.00
77411;PMS7003;66484;49.968;19.140;2023-07-13T08:06:57;9.75;9.75;8.75
77411;PMS7003;66484;49.968;19.140;2023-07-13T08:09:25;11.25;11.25;8.75
77411;PMS7003;66484;49.968;19.140;2023-07-13T08:11:53;12.25;10.00;9.25
77411;PMS7003;66484;49.968;19.140;2023-07-13T08:14:25;12.75;11.50;8.25
77411;PMS7003;66484;49.968;19.140;2023-07-13T08:17:12;12.50;11.50;7.50
77411;PMS7003;66484;49.968;19.140;2023-07-13T08:19:40;9.00;8.25;7.25
77411;PMS7003;66484;49.968;19.140;2023-07-13T08:22:07;11.50;10.25;8.75
77411;PMS7003;66484;49.968;19.140;2023-07-13T08:24:35;13.00;12.00;9.75
77411;PMS7003;66484;49.968;19.140;2023-07-13T08:27:03;12.25;10.25;8.00
77411;PMS7003;66484;49.968;19.140;2023-07-13T08:29:30;13.50;12.50;10.00
77411;PMS7003;66484;49.968;19.140;2023-07-13T08:32:00;9.25;9.25;8.25
77411;PMS7003;66484;49.968;19.140;2023-07-13T08:34:28;8.00;8.00;7.25
77411;PMS7003;66484;49.968;19.140;2023-07-13T08:36:55;11.00;9.50;8.50
77411;PMS7003;66484;49.968;19.140;2023-07-13T08:39:25;12.50;12.00;10.50
77411;PMS7003;66484;49.968;19.140;2023-07-13T08:41:56;9.75;9.50;8.50
77411;PMS7003;66484;49.968;19.140;2023-07-13T08:44:33;10.00;9.50;8.25
77411;PMS7003;66484;49.968;19.140;2023-07-13T08:47:04;14.00;13.75;11.00
77411;PMS7003;66484;49.968;19.140;2023-07-13T08:49:33;11.25;11.25;9.50
77411;PMS7003;66484;49.968;19.140;2023-07-13T08:52:03;11.75;11.75;10.25
77411;PMS7003;66484;49.968;19.140;2023-07-13T08:54:41;12.50;12.50;10.00
77411;PMS7003;66484;49.968;19.140;2023-07-13T08:57:22;15.00;12.25;10.00
77411;PMS7003;66484;49.968;19.140;2023-07-13T08:59:52;12.75;12.75;10.00
77411;PMS7003;66484;49.968;19.140;2023-07-13T09:05:09;15.50;15.50;11.75
77411;PMS7003;66484;49.968;19.140;2023-07-13T09:13:16;15.00;14.75;10.75
77411;PMS7003;66484;49.968;19.140;2023-07-13T09:15:48;13.75;13.75;11.00
77411;PMS7003;66484;49.968;19.140;2023-07-13T09:18:19;16.00;14.50;13.00
77411;PMS7003;66484;49.968;19.140;2023-07-13T09:21:00;13.25;13.25;11.25
77411;PMS7003;66484;49.968;19.140;2023-07-13T09:23:30;15.00;13.00;10.75
77411;PMS7003;66484;49.968;19.140;2023-07-13T09:26:05;20.25;18.50;13.00
77411;PMS7003;66484;49.968;19.140;2023-07-13T09:28:34;18.00;16.50;13.25
77411;PMS7003;66484;49.968;19.140;2023-07-13T09:31:06;16.25;13.25;11.25
77411;PMS7003;66484;49.968;19.140;2023-07-13T09:33:34;17.25;15.75;11.50
77411;PMS7003;66484;49.968;19.140;2023-07-13T09:36:05;17.75;17.75;14.00
77411;PMS7003;66484;49.968;19.140;2023-07-13T09:38:44;16.25;16.00;13.00
77411;PMS7003;66484;49.968;19.140;2023-07-13T09:41:55;18.75;16.25;12.25
77411;PMS7003;66484;49.968;19.140;2023-07-13T09:44:07;16.75;16.25;13.00
77411;PMS7003;66484;49.968;19.140;2023-07-13T09:46:43;18.75;18.50;14.00
77411;PMS7003;66484;49.968;19.140;2023-07-13T09:49:11;15.75;15.00;12.50
77411;PMS7003;66484;49.968;19.140;2023-07-13T09:51:42;25.50;22.75;17.00
77411;PMS7003;66484;49.968;19.140;2023-07-13T09:54:21;19.25;18.25;13.75
77411;PMS7003;66484;49.968;19.140;2023-07-13T09:56:58;16.50;16.25;14.50
77411;PMS7003;66484;49.968;19.140;2023-07-13T09:59:35;19.50;19.50;13.75
77411;PMS7003;66484;49.968;19.140;2023-07-13T10:02:16;23.00;19.75;12.00
77411;PMS7003;66484;49.968;19.140;2023-07-13T10:04:55;18.25;16.50;13.00
77411;PMS7003;66484;49.968;19.140;2023-07-13T10:07:22;25.00;21.75;15.75
77411;PMS7003;66484;49.968;19.140;2023-07-13T10:09:57;23.75;23.00;15.00
77411;PMS7003;66484;49.968;19.140;2023-07-13T10:12:25;20.50;20.50;16.50
77411;PMS7003;66484;49.968;19.140;2023-07-13T10:14:59;19.75;19.25;16.25
77411;PMS7003;66484;49.968;19.140;2023-07-13T10:17:47;18.00;18.00;12.75
77411;PMS7003;66484;49.968;19.140;2023-07-13T10:20:16;23.50;21.25;16.75
77411;PMS7003;66484;49.968;19.140;2023-07-13T10:22:50;23.25;21.50;16.50
77411;PMS7003;66484;49.968;19.140;2023-07-13T10:25:23;18.75;17.25;13.75
77411;PMS7003;66484;49.968;19.140;2023-07-13T10:27:54;18.25;18.25;14.75
77411;PMS7003;66484;49.968;19.140;2023-07-13T10:30:44;12.25;12.00;9.25
77411;PMS7003;66484;49.968;19.140;2023-07-13T10:33:14;13.75;12.75;10.00
77411;PMS7003;66484;49.968;19.140;2023-07-13T10:35:43;9.50;9.50;7.75
77411;PMS7003;66484;49.968;19.140;2023-07-13T10:38:12;15.75;15.00;12.50
77411;PMS7003;66484;49.968;19.140;2023-07-13T10:40:45;18.75;17.50;13.25
77411;PMS7003;66484;49.968;19.140;2023-07-13T10:45:43;11.50;11.00;9.00
77411;PMS7003;66484;49.968;19.140;2023-07-13T10:48:12;12.00;12.00;10.00
77411;PMS7003;66484;49.968;19.140;2023-07-13T10:50:43;15.33;14.00;11.67
77411;PMS7003;66484;49.968;19.140;2023-07-13T10:58:19;19.00;17.33;13.67
77411;PMS7003;66484;49.968;19.140;2023-07-13T11:00:57;15.33;14.00;12.33
77411;PMS7003;66484;49.968;19.140;2023-07-13T11:03:27;14.00;14.00;11.67
77411;PMS7003;66484;49.968;19.140;2023-07-13T11:06:06;18.00;18.00;14.67
77411;PMS7003;66484;49.968;19.140;2023-07-13T11:21:29;13.00;11.67;11.00
77411;PMS7003;66484;49.968;19.140;2023-07-13T11:24:14;13.25;13.00;11.00
77411;PMS7003;66484;49.968;19.140;2023-07-13T11:31:51;9.75;9.75;8.00
77411;PMS7003;66484;49.968;19.140;2023-07-13T11:34:27;17.75;14.50;11.00
77411;PMS7003;66484;49.968;19.140;2023-07-13T11:36:56;16.25;16.25;12.00
77411;PMS7003;66484;49.968;19.140;2023-07-13T11:39:31;7.00;7.00;6.25
77411;PMS7003;66484;49.968;19.140;2023-07-13T11:42:00;11.50;11.25;10.25
77411;PMS7003;66484;49.968;19.140;2023-07-13T11:44:29;18.25;15.00;11.00
77411;PMS7003;66484;49.968;19.140;2023-07-13T11:46:58;15.25;12.00;9.00
77411;PMS7003;66484;49.968;19.140;2023-07-13T11:49:29;14.25;12.50;9.50
77411;PMS7003;66484;49.968;19.140;2023-07-13T11:51:59;11.25;11.25;9.00
77411;PMS7003;66484;49.968;19.140;2023-07-13T11:54:28;11.50;10.00;8.25
77411;PMS7003;66484;49.968;19.140;2023-07-13T11:56:57;12.75;12.75;9.50
77411;PMS7003;66484;49.968;19.140;2023-07-13T11:59:29;15.25;15.25;12.00
77411;PMS7003;66484;49.968;19.140;2023-07-13T12:01:57;20.25;16.75;12.75
77411;PMS7003;66484;49.968;19.140;2023-07-13T12:04:29;21.00;18.25;15.50
77411;PMS7003;66484;49.968;19.140;2023-07-13T12:07:03;15.00;14.00;10.25
77411;PMS7003;66484;49.968;19.140;2023-07-13T12:09:32;12.75;12.75;11.25
77411;PMS7003;66484;49.968;19.140;2023-07-13T12:12:00;11.25;9.25;8.25
77411;PMS7003;66484;49.968;19.140;2023-07-13T12:14:28;11.00;10.00;8.00
77411;PMS7003;66484;49.968;19.140;2023-07-13T12:16:55;12.00;11.25;10.00
77411;PMS7003;66484;49.968;19.140;2023-07-13T12:19:25;8.25;8.25;7.00
77411;PMS7003;66484;49.968;19.140;2023-07-13T12:21:54;14.00;11.75;8.00
77411;PMS7003;66484;49.968;19.140;2023-07-13T12:24:24;10.25;10.25;8.00
77411;PMS7003;66484;49.968;19.140;2023-07-13T12:26:59;11.75;11.75;9.25
77411;PMS7003;66484;49.968;19.140;2023-07-13T12:29:32;13.50;12.75;10.75
77411;PMS7003;66484;49.968;19.140;2023-07-13T12:31:59;10.50;10.50;9.50
77411;PMS7003;66484;49.968;19.140;2023-07-13T12:34:28;11.25;11.00;10.00
77411;PMS7003;66484;49.968;19.140;2023-07-13T12:36:58;12.25;11.50;10.00
77411;PMS7003;66484;49.968;19.140;2023-07-13T12:39:37;19.25;19.25;15.25
77411;PMS7003;66484;49.968;19.140;2023-07-13T12:42:14;16.00;16.00;13.00
77411;PMS7003;66484;49.968;19.140;2023-07-13T12:44:45;5.50;5.50;5.25
77411;PMS7003;66484;49.968;19.140;2023-07-13T12:47:14;5.75;5.75;5.00
77411;PMS7003;66484;49.968;19.140;2023-07-13T12:49:47;9.25;8.50;6.75
77411;PMS7003;66484;49.968;19.140;2023-07-13T12:52:50;10.75;10.00;8.50
77411;PMS7003;66484;49.968;19.140;2023-07-13T12:55:13;8.00;8.00;7.00
77411;PMS7003;66484;49.968;19.140;2023-07-13T13:00:55;7.50;6.25;6.00
77411;PMS7003;66484;49.968;19.140;2023-07-13T13:03:05;10.25;9.00;6.25
77411;PMS7003;66484;49.968;19.140;2023-07-13T13:05:41;9.00;9.00;7.00
77411;PMS7003;66484;49.968;19.140;2023-07-13T13:08:13;7.75;7.75;6.75
77411;PMS7003;66484;49.968;19.140;2023-07-13T13:10:41;7.25;7.25;7.00
77411;PMS7003;66484;49.968;19.140;2023-07-13T13:13:08;6.00;6.00;5.50
77411;PMS7003;66484;49.968;19.140;2023-07-13T13:15:35;6.50;5.00;4.50
77411;PMS7003;66484;49.968;19.140;2023-07-13T13:18:08;9.00;6.50;4.50
77411;PMS7003;66484;49.968;19.140;2023-07-13T13:20:41;8.00;7.00;6.00
77411;PMS7003;66484;49.968;19.140;2023-07-13T13:23:13;7.00;7.00;6.00
77411;PMS7003;66484;49.968;19.140;2023-07-13T13:25:48;4.25;4.25;4.00
77411;PMS7003;66484;49.968;19.140;2023-07-13T13:28:15;5.25;3.75;3.25
77411;PMS7003;66484;49.968;19.140;2023-07-13T13:30:44;3.50;3.50;2.25
77411;PMS7003;66484;49.968;19.140;2023-07-13T13:33:15;4.25;4.25;3.75
77411;PMS7003;66484;49.968;19.140;2023-07-13T13:35:44;12.00;7.75;5.00
77411;PMS7003;66484;49.968;19.140;2023-07-13T13:38:19;4.75;4.75;2.75
77411;PMS7003;66484;49.968;19.140;2023-07-13T13:40:48;6.50;5.75;5.00
77411;PMS7003;66484;49.968;19.140;2023-07-13T13:45:46;7.50;7.50;6.00
77411;PMS7003;66484;49.968;19.140;2023-07-13T13:48:15;9.25;6.00;5.00
77411;PMS7003;66484;49.968;19.140;2023-07-13T13:50:43;8.25;6.75;5.25
77411;PMS7003;66484;49.968;19.140;2023-07-13T13:53:11;5.00;5.00;5.00
77411;PMS7003;66484;49.968;19.140;2023-07-13T13:55:40;5.25;5.25;4.75
77411;PMS7003;66484;49.968;19.140;2023-07-13T13:58:09;7.50;7.50;6.00
77411;PMS7003;66484;49.968;19.140;2023-07-13T14:00:37;8.25;8.25;6.00
77411;PMS7003;66484;49.968;19.140;2023-07-13T14:03:13;6.50;6.00;5.75
77411;PMS7003;66484;49.968;19.140;2023-07-13T14:05:41;10.75;8.75;6.25
77411;PMS7003;66484;49.968;19.140;2023-07-13T14:08:12;6.00;6.00;5.00
77411;PMS7003;66484;49.968;19.140;2023-07-13T14:10:40;7.25;6.25;4.75
77411;PMS7003;66484;49.968;19.140;2023-07-13T14:13:18;7.00;7.00;7.00
77411;PMS7003;66484;49.968;19.140;2023-07-13T14:15:47;5.50;5.50;5.25
77411;PMS7003;66484;49.968;19.140;2023-07-13T14:18:15;8.50;7.25;7.00
77411;PMS7003;66484;49.968;19.140;2023-07-13T14:20:47;9.00;7.75;6.25
77411;PMS7003;66484;49.968;19.140;2023-07-13T14:23:15;10.50;9.50;8.25
77411;PMS7003;66484;49.968;19.140;2023-07-13T14:25:45;13.25;11.75;9.25
77411;PMS7003;66484;49.968;19.140;2023-07-13T14:28:23;9.75;9.00;8.00
77411;PMS7003;66484;49.968;19.140;2023-07-13T14:30:52;12.75;10.75;9.00
77411;PMS7003;66484;49.968;19.140;2023-07-13T14:33:21;13.25;11.75;10.00
77411;PMS7003;66484;49.968;19.140;2023-07-13T14:35:49;9.50;9.50;6.75
77411;PMS7003;66484;49.968;19.140;2023-07-13T14:38:18;11.25;8.75;7.75
77411;PMS7003;66484;49.968;19.140;2023-07-13T14:40:47;8.75;8.75;7.00
77411;PMS7003;66484;49.968;19.140;2023-07-13T14:43:15;11.25;11.25;9.50
77411;PMS7003;66484;49.968;19.140;2023-07-13T14:45:44;7.50;7.50;7.00
77411;PMS7003;66484;49.968;19.140;2023-07-13T14:48:14;8.00;7.25;6.50
77411;PMS7003;66484;49.968;19.140;2023-07-13T14:50:45;6.00;6.00;6.00